• Join FlightAware (Why Join?)
  • Login
  • US Flag 
02:06PM EDT


 

Airport Tracker/Info


-or-


 

Live Flight TrackerFlight Track Log ✈ WBR2634 ✈ 20-Sep-2013 ✈ KBRL - KORD

Flight Track Log - Related Links

Times and Time Zones

All times are in EDT time to prevent confusion due to time zone crossing. See the WBR2634 flight status page for this flight to view local times or setup timezone preferences in your user account.

Time Position Orientation Groundspeed Altitude Reporting Facility
EDT Latitude Longitude Course Direction KTS MPH feet Rate Location/Type
05:35PM 40.8097 -91.0889 75° East 138 159 2,400  Level Chicago Center
05:37PM 40.8197 -91.0408 75° East 116 133 3,600 1,020 Climbing Chicago Center
05:38PM 40.8319 -91.0017 68° East 116 133 4,600 960 Climbing Chicago Center
05:39PM 40.8433 -90.9639 68° East 113 130 5,600 840 Climbing Chicago Center
05:40PM 40.8569 -90.9256 65° Northeast 112 129 6,400 720 Climbing Chicago Center
05:41PM 40.8700 -90.8758 71° East 134 154 7,100 660 Climbing Chicago Center
05:42PM 40.8911 -90.8300 59° Northeast 143 165 7,800 720 Climbing Chicago Center
05:43PM 40.9078 -90.7789 67° East 150 173 8,600 600 Climbing Chicago Center
05:44PM 40.9286 -90.7161 66° East 155 178 9,100 240 Climbing Chicago Center
05:45PM 40.9453 -90.6553 70° East 173 199 9,100  Level Chicago Center
05:46PM 40.9678 -90.5919 65° Northeast 186 214 9,100  Level Chicago Center
05:48PM 41.0117 -90.4683 65° Northeast 184 212 9,100 -60 Level Chicago Center
05:49PM 41.0325 -90.4047 67° East 187 215 9,000  Descending Chicago Center
05:50PM 41.0572 -90.3314 66° East 183 211 9,100  Climbing Chicago Center
05:51PM 41.0772 -90.2697 67° East 181 208 9,000  Descending Chicago Center
05:52PM 41.0975 -90.2106 66° East 178 205 9,100  Climbing Chicago Center
05:53PM 41.1175 -90.1511 66° East 178 205 9,100  Level Chicago Center
05:54PM 41.1383 -90.0900 66° East 180 207 9,100  Level Chicago Center
05:55PM 41.1614 -90.0311 63° Northeast 179 206 9,100  Level Chicago Center
05:56PM 41.1806 -89.9675 68° East 184 212 9,100  Level Chicago Center
05:57PM 41.2044 -89.8925 67° East 183 211 9,100  Level Chicago Center
05:58PM 41.2261 -89.8328 64° Northeast 181 208 9,100  Level Chicago Center
05:59PM 41.2458 -89.7711 67° East 180 207 9,100  Level Chicago Center
06:00PM 41.2669 -89.7097 65° Northeast 181 208 9,100 -240 Level Chicago Center
06:01PM 41.2861 -89.6472 68° East 183 211 8,700 -480 Descending Chicago Center
06:02PM 41.3058 -89.5844 67° East 183 211 8,200 -360 Descending Chicago Center
06:03PM 41.3297 -89.5125 66° East 179 206 8,000 -120 Descending Chicago Center
06:04PM 41.3497 -89.4533 66° East 176 203 8,000  Level Chicago Center
06:05PM 41.3700 -89.3947 65° Northeast 175 201 8,000  Level Chicago Center
06:07PM 41.3881 -89.3361 68° East 173 199 8,000  Level Chicago Center
06:08PM 41.4053 -89.2778 68° East 169 194 8,000  Level Chicago Center
06:09PM 41.4225 -89.2197 68° East 168 193 8,000  Level Chicago Center
06:10PM 41.4444 -89.1561 65° Northeast 172 198 8,000  Level Chicago Center
06:11PM 41.4603 -89.1000 69° East 165 190 8,000  Level Chicago Center
06:12PM 41.4833 -89.0317 66° East 169 194 8,000  Level Chicago Center
06:13PM 41.5011 -88.9769 67° East 163 188 8,000  Level Chicago Center
06:14PM 41.5183 -88.9214 67° East 163 188 8,000  Level Chicago Center
06:15PM 41.5403 -88.8661 62° Northeast 168 193 8,000  Level Chicago Center
06:16PM 41.5600 -88.8092 65° Northeast 169 194 8,000  Level Chicago Center
06:17PM 41.5800 -88.7389 69° East 169 194 8,000  Level Chicago Center
06:18PM 41.5969 -88.6789 69° East 172 198 8,000  Level Chicago Center
06:19PM 41.6128 -88.6214 70° East 169 194 8,000  Level Chicago Center
06:20PM 41.6369 -88.5678 59° Northeast 169 194 8,000  Level Chicago Center
06:21PM 41.6617 -88.5156 58° Northeast 167 192 8,100  Climbing Chicago Center
06:22PM 41.6889 -88.4636 55° Northeast 171 197 8,100 -60 Level Chicago Center
06:23PM 41.6997 -88.3814 80° East 187 215 8,000 -180 Descending Chicago Center
06:24PM 41.7181 -88.3175 69° East 189 217 7,800 -300 Descending Chicago Center
06:25PM 41.7456 -88.2564 59° Northeast 192 221 7,400 -420 Descending Chicago Center
06:26PM 41.7761 -88.1956 56° Northeast 197 227 7,000 -240 Descending Chicago Center
06:27PM 41.8044 -88.1381 57° Northeast 189 217 7,000  Level Chicago Center
06:28PM 41.8289 -88.0825 59° Northeast 177 204 7,000  Level Chicago Center
06:29PM 41.8586 -88.0117 61° Northeast 180 207 7,100  Climbing Chicago Center
06:30PM 41.8781 -87.9500 67° East 180 207 7,100 -60 Level Chicago Center
06:31PM 41.8847 -87.8811 83° East 184 212 7,000 -60 Descending Chicago Center
06:32PM 41.8903 -87.8128 84° East 186 214 7,000 -420 Level Chicago Center
06:33PM 41.8933 -87.7400 87° East 193 222 6,200 -780 Descending Chicago Center
06:34PM 41.9178 -87.6667 66° East 203 234 5,500 -900 Descending Chicago Center
06:36PM 41.9617 -87.6911 338° Northwest 184 212 4,400 -1,320 Descending Chicago Center
06:37PM 41.9667 -87.7667 275° West 156 180 2,600 -1,200 Descending Chicago TRACON
06:38PM 41.9667 -87.8167 270° West 151 174 1,800 -900 Descending Chicago TRACON
06:39PM 41.9667 -87.8667 270° West 148 170 900 -900 Descending Chicago TRACON
06:41PM 41.9667 -87.9000 270° West  Level FlightAware Approximate